Historyczne dane pomiarowe

Dodano dane terminowe – wersja testowa.

Dane z okresu 1951-2019

Wersja bazy: 1.34 [2019-03-16, lista zmian], aktualizacja planowana na 2019-04-15

Dane meteo z obszaru Polski uzyskane na podstawie danych udostępnionych przez Instytut Meteorologii i Gospodarki Wodnej – Państwowy Instytut Badawczy.

 

Wybierz Datę:    

       

TemperaturaWilgotnośćWiatrCiśnienieOpadyŚniegCzas trwania zjawisk
 Stacja t tx tn tng RH VA  wxwx mslp ppp RRR   cm mm wxwxwxwxwxwxwx
1994-08-14 13.7 17.2 10.6- 73.0- 4.0 5.7---- 0.9------------
1994-08-13 15.3 20.8 13.5- 90.8- 7.7 5.0---- 5.0------------
1994-08-12 17.1 20.0 15.5- 92.0- 8.0 1.7---- 1.1------------
1994-08-11 17.9 22.8 15.7- 89.5- 7.7 2.0---- 12.2------------
1994-08-10 20.0 27.6 12.2- 75.0- 3.3 0.7---- 0.0------------
1994-08-09 19.1 24.0 14.8- 89.3- 6.7 1.3---- 10.1------------
1994-08-08 20.4 24.7 17.2- 87.8- 5.0 1.0---- 7.2------------
1994-08-07 22.1 27.8 15.0- 77.0- 6.3 0.7---- 3.4------------
1994-08-06 23.9 30.8 16.2- 66.5- 3.7 1.3---- 0.0------------
1994-08-05 23.1 33.2 10.9- 72.0- 2.3 1.0---- 0.0------------
1994-08-04 22.4 28.4 13.3- 73.0- 2.0 0.0---- 0.0------------
1994-08-03 22.6 28.6 18.2- 64.5- 2.7 1.0---- 0.0------------
1994-08-02 25.0 31.4 19.9- 64.0- 5.7 1.3---- 0.0------------
1994-08-01 26.5 36.0 16.5- 58.8- 5.7 1.3---- 0.3------------
1994-07-31 25.9 35.5 15.0- 62.5- 2.7 1.0---- 0.0------------
1994-07-30 24.9 35.8 13.9- 67.5- 3.7 0.0---- 0.0------------
1994-07-29 25.0 35.2 13.7- 63.5- 1.3 0.3---- 0.0------------
1994-07-28 24.8 34.2 12.8- 64.0- 2.3 0.7---- 0.0------------
1994-07-27 24.0 33.6 13.7- 66.0- 5.0 0.3---- 0.0------------
1994-07-26 24.2 33.4 13.0- 62.5- 2.0 0.0---- 0.0------------
1994-07-25 23.8 32.2 11.6- 62.8- 3.0 0.3---- 0.0------------
1994-07-24 21.9 30.2 9.6- 59.8- 1.0 1.0---- 0.0------------
1994-07-23 21.1 29.7 9.6- 66.5- 1.7 1.3---- 0.0------------
1994-07-22 20.1 28.6 9.3- 64.0- 0.7 1.0---- 0.0------------
1994-07-21 19.5 27.6 8.2- 65.3- 0.0 0.7---- 0.0------------
1994-07-20 18.1 24.3 7.9- 65.5- 1.3 2.0---- 0.0------------
1994-07-19 18.1 23.8 12.9- 63.3- 4.7 3.0---- 0.0------------
1994-07-18 19.1 24.9 14.8- 80.0- 5.3 1.0---- 0.0------------
1994-07-17 20.9 28.0 14.3- 86.3- 6.7 0.7---- 3.1------------
1994-07-16 22.1 27.8 14.3- 74.5- 4.7 1.7---- 8.9------------
1994-07-15 23.2 29.5 17.2- 71.0- 4.7 0.7---- 0.0------------
1994-07-14 23.0 31.2 12.2- 68.8- 3.3 0.7---- 0.0------------
1994-07-13 22.1 29.3 11.8- 54.0- 3.0 1.3---- 0.0------------
1994-07-12 21.3 27.1 14.4- 72.8- 2.7 1.0---- 0.0------------
1994-07-11 20.6 27.5 12.0- 71.5- 2.0 1.7---- 0.0------------
1994-07-10 18.7 24.8 12.7- 74.0- 5.0 2.7---- 0.0------------
1994-07-09 15.5 21.0 12.7- 90.8- 7.3 2.7---- 16.0------------
1994-07-08 14.3 19.0 13.6- 88.0- 8.0 6.0---- 30.0------------
1994-07-07 18.4 27.2 9.6- 75.3- 5.3 2.0---- 7.0------------
1994-07-06 19.8 25.6 14.5- 72.3- 5.0 1.3---- 0.0------------
1994-07-05 18.4 23.8 13.4- 79.3- 7.0 1.0---- 2.3------------
1994-07-04 21.2 29.3 9.7- 57.8- 1.7 2.3---- 0.0------------
1994-07-03 20.3 28.9 8.2- 57.5- 0.0 1.7---- 0.0------------
1994-07-02 18.4 25.6 7.4- 63.3- 0.7 1.3---- 0.0------------
1994-07-01 17.6 23.0 8.3- 67.3- 2.0 3.0---- 0.0------------
1994-06-30 19.6 27.5 18.2- 79.5- 5.3 3.0---- 0.4------------
1994-06-29 24.8 33.7 15.4- 71.0- 3.3 0.7---- 2.8------------
1994-06-28 23.9 31.0 15.7- 71.8- 3.0 1.7---- 0.0------------
1994-06-27 23.3 31.0 14.4- 72.5- 3.0 1.3---- 0.0------------
1994-06-26 23.0 31.5 9.8- 54.5- 2.7 1.7---- 0.0------------
1994-06-25 17.6 25.1 3.4- 55.5- 0.0 2.3---- 0.0------------
1994-06-24 14.8 20.3 8.4- 56.0- 1.0 5.7---- 0.0------------
1994-06-23 17.0 21.2 13.9- 50.8- 2.7 7.0---- 0.0------------
1994-06-22 19.0 24.3 12.2- 70.0- 7.0 3.7---- 0.0------------
1994-06-21 16.4 22.5 5.8- 68.8- 3.7 1.3---- 0.0------------
1994-06-20 17.2 21.0 14.8- 66.5- 5.7 5.0---- 0.0------------
1994-06-19 17.6 24.0 12.3- 70.8- 5.3 2.7---- 0.0------------
1994-06-18 12.6 18.8 4.4- 73.3- 7.0 1.7---- 3.2------------
1994-06-17 10.6 14.2 7.8- 73.8- 6.3 4.0---- 0.0------------
1994-06-16 11.0 15.3 7.4- 81.0- 8.0 3.0---- 3.0------------
278.4 ms

 

Źródłem pochodzenia danych jest Instytut Meteorologii i Gospodarki Wodnej – Państwowy Instytut Badawczy. Dane Instytutu Meteorologii i Gospodarki Wodnej – Państwowego Instytutu Badawczego zostały przetworzone.

Dane źródłowe można odnaleźć na stronie https://dane.imgw.pl